Terminal Aerodrome Forecast
Issued by NWS Sterling, VA

Home | Current Version | Previous Version | Text Only | Print | Product List | Glossary On
Versions: 1 2 3 4 5 6 7 8 9 10 11 12 13 14 15 16 17 18 19
000
FTUS41 KLWX 290033 AAA
TAFCHO
TAF AMD
KCHO 290033Z 2901/2924 00000KT 2SM -RA BR BKN007 OVC080
     FM290200 VRB03KT 5SM SHRA BKN025
     FM290500 VRB03KT 2SM SHRA BKN008
     FM290600 VRB03KT P6SM BKN008
     FM291200 24004KT P6SM SCT003
     FM291500 27006KT P6SM SCT045
     FM291600 27006KT P6SM SCT250=

USA.gov is the U.S. government's official web portal to all federal, state and local government web resources and services.